URO912 EGHH-ZWWW
Flight info
| Callsign | URO912 |
|---|---|
| Flight time | N/A |
| Altitude | 37000 |
| Route | GWC N16 OTSID DCT PAWDE P2 DVR UL9 KONAN UL607 MATUG DCT GUBAX DCT OSDUR DCT OSBIT L984 KOMIB DCT TONSU Z650 NOGRA DCT ETVIS DCT PEMEL DCT NELPA DCT TABEM DCT LIKSA DCT MAVOR DCT TURIS DCT PATAK DCT NIPUR DCT ADUKU DCT BUKAN DCT RUSAG DCT LEBAT DCT DENAK DCT DIRAL DCT FTS DCT VAKIS DCT UDROS UM859 KARDE UN644 ROLIN N644 LAGAS M747 SUBUT T923 ERLEV/N0470F390 DCT NIJAT DCT METKA B476 DARVA/K0861F390 T898 OGOLI N193 SR DCT TISIB L141 KAMUD/K0857S1190 A468 XKC B215 EPDAG EPDAG8Y |
| Aircraft | A346/H-SDE2E3FGHIJ3J4J5M1RWXY/LB1D1 |
Departure
| Time | 2026-05-05 18:13 |
|---|---|
| Airport | Bournemouth Airport (EGHH) |
Arrival
| Time | N/A |
|---|---|
| Airport | Ürümqi Tianshan International Airport (ZWWW) |
| Time | Latitude | Longitude | Altitude | Speed | Heading |
|---|---|---|---|---|---|
| 2026-05-05 17:52 | 50.78606 | -1.84236 | 54 ft | 0 kts | 255° |
| 2026-05-05 18:02 | 50.78606 | -1.84234 | 54 ft | 2 kts | 255° |
| 2026-05-05 18:02 | 50.78614 | -1.84186 | 49 ft | 2 kts | 256° |
| 2026-05-05 18:02 | 50.78619 | -1.84163 | 46 ft | 4 kts | 241° |
| 2026-05-05 18:03 | 50.78631 | -1.84142 | 46 ft | 4 kts | 203° |
| 2026-05-05 18:03 | 50.78649 | -1.84139 | 47 ft | 4 kts | 168° |
| 2026-05-05 18:03 | 50.78675 | -1.84150 | 46 ft | 4 kts | 165° |
| 2026-05-05 18:03 | 50.78681 | -1.84153 | 49 ft | 0 kts | 166° |
| 2026-05-05 18:07 | 50.78658 | -1.84143 | 54 ft | 10 kts | 166° |
| 2026-05-05 18:07 | 50.78578 | -1.84111 | 48 ft | 13 kts | 165° |
| 2026-05-05 18:07 | 50.78481 | -1.84071 | 50 ft | 16 kts | 165° |
| 2026-05-05 18:08 | 50.78370 | -1.84025 | 54 ft | 17 kts | 165° |
| 2026-05-05 18:08 | 50.78250 | -1.83975 | 52 ft | 19 kts | 165° |
| 2026-05-05 18:08 | 50.78127 | -1.83924 | 51 ft | 11 kts | 165° |
| 2026-05-05 18:08 | 50.78056 | -1.83973 | 50 ft | 14 kts | 246° |
| 2026-05-05 18:09 | 50.78026 | -1.84137 | 49 ft | 17 kts | 254° |
| 2026-05-05 18:09 | 50.77990 | -1.84341 | 51 ft | 21 kts | 255° |
| 2026-05-05 18:09 | 50.77950 | -1.84597 | 54 ft | 27 kts | 256° |
| 2026-05-05 18:09 | 50.77901 | -1.84888 | 54 ft | 28 kts | 255° |
| 2026-05-05 18:10 | 50.77852 | -1.85182 | 53 ft | 28 kts | 255° |
| 2026-05-05 18:10 | 50.77805 | -1.85470 | 52 ft | 23 kts | 255° |
| 2026-05-05 18:10 | 50.77757 | -1.85666 | 48 ft | 16 kts | 228° |
| 2026-05-05 18:10 | 50.77740 | -1.85728 | 50 ft | 1 kts | 319° |
| 2026-05-05 18:11 | 50.77746 | -1.85729 | 50 ft | 2 kts | 6° |
| 2026-05-05 18:11 | 50.77761 | -1.85700 | 51 ft | 5 kts | 60° |
| 2026-05-05 18:11 | 50.77772 | -1.85657 | 51 ft | 0 kts | 75° |
| 2026-05-05 18:12 | 50.77773 | -1.85651 | 52 ft | 6 kts | 75° |
| 2026-05-05 18:12 | 50.77855 | -1.85169 | 52 ft | 86 kts | 75° |
| 2026-05-05 18:13 | 50.78075 | -1.83841 | 47 ft | 158 kts | 76° |
| 2026-05-05 18:13 | 50.78366 | -1.81942 | 406 ft | 188 kts | 74° |
| 2026-05-05 18:13 | 50.78660 | -1.79892 | 1376 ft | 190 kts | 74° |
| 2026-05-05 18:13 | 50.78971 | -1.77875 | 2352 ft | 187 kts | 72° |
| 2026-05-05 18:14 | 50.79309 | -1.75806 | 2860 ft | 201 kts | 72° |
| 2026-05-05 18:14 | 50.79677 | -1.73577 | 3296 ft | 217 kts | 72° |
| 2026-05-05 18:14 | 50.80078 | -1.71156 | 3693 ft | 237 kts | 73° |
| 2026-05-05 18:14 | 50.80511 | -1.68537 | 4137 ft | 254 kts | 73° |
| 2026-05-05 18:15 | 50.81054 | -1.65839 | 4817 ft | 259 kts | 59° |
| 2026-05-05 18:15 | 50.82057 | -1.63467 | 5661 ft | 259 kts | 52° |
| 2026-05-05 18:15 | 50.83137 | -1.61168 | 6456 ft | 262 kts | 52° |
| 2026-05-05 18:15 | 50.84239 | -1.58825 | 7171 ft | 267 kts | 52° |
| 2026-05-05 18:16 | 50.85352 | -1.56437 | 7885 ft | 271 kts | 52° |
| 2026-05-05 18:16 | 50.86482 | -1.54003 | 8446 ft | 275 kts | 52° |
| 2026-05-05 18:16 | 50.87620 | -1.51543 | 8969 ft | 279 kts | 52° |
| 2026-05-05 18:16 | 50.88758 | -1.49075 | 9501 ft | 282 kts | 52° |
| 2026-05-05 18:17 | 50.89921 | -1.46549 | 9890 ft | 285 kts | 52° |
| 2026-05-05 18:17 | 50.91093 | -1.44002 | 9936 ft | 285 kts | 52° |
| 2026-05-05 18:17 | 50.92265 | -1.41454 | 9942 ft | 285 kts | 52° |
| 2026-05-05 18:17 | 50.93440 | -1.38900 | 9944 ft | 285 kts | 52° |
| 2026-05-05 18:18 | 50.94557 | -1.36261 | 9962 ft | 286 kts | 64° |
| 2026-05-05 18:18 | 50.95087 | -1.33157 | 10246 ft | 304 kts | 85° |
| 2026-05-05 18:18 | 50.94823 | -1.29721 | 10505 ft | 324 kts | 102° |
| 2026-05-05 18:18 | 50.94219 | -1.26162 | 10764 ft | 343 kts | 104° |
| 2026-05-05 18:19 | 50.93554 | -1.22416 | 11028 ft | 361 kts | 104° |
| 2026-05-05 18:19 | 50.92865 | -1.18498 | 11287 ft | 375 kts | 104° |
| 2026-05-05 18:19 | 50.92265 | -1.15034 | 11499 ft | 379 kts | 104° |
| 2026-05-05 18:19 | 50.91580 | -1.11048 | 11749 ft | 380 kts | 104° |
| 2026-05-05 18:20 | 50.90887 | -1.06988 | 11931 ft | 381 kts | 104° |
| 2026-05-05 18:20 | 50.90193 | -1.02915 | 11924 ft | 381 kts | 104° |
| 2026-05-05 18:20 | 50.89499 | -0.98846 | 11938 ft | 380 kts | 104° |
| 2026-05-05 18:20 | 50.88806 | -0.94788 | 11932 ft | 380 kts | 104° |
| 2026-05-05 18:21 | 50.88114 | -0.90752 | 11928 ft | 380 kts | 104° |
| 2026-05-05 18:21 | 50.87418 | -0.86702 | 11942 ft | 380 kts | 104° |
| 2026-05-05 18:21 | 50.86725 | -0.82666 | 11930 ft | 379 kts | 103° |
| 2026-05-05 18:21 | 50.86385 | -0.78505 | 12010 ft | 388 kts | 86° |
| 2026-05-05 18:22 | 50.86990 | -0.74350 | 12771 ft | 386 kts | 66° |
| 2026-05-05 18:22 | 50.88402 | -0.70787 | 13742 ft | 381 kts | 49° |
| 2026-05-05 18:22 | 50.90232 | -0.67728 | 14451 ft | 384 kts | 45° |
| 2026-05-05 18:22 | 50.92155 | -0.64632 | 15007 ft | 390 kts | 45° |
| 2026-05-05 18:23 | 50.93054 | -0.63185 | 15279 ft | 392 kts | 45° |
| 2026-05-05 18:23 | 50.94948 | -0.60119 | 15892 ft | 395 kts | 45° |
| 2026-05-05 18:23 | 50.96914 | -0.56910 | 16520 ft | 399 kts | 45° |
| 2026-05-05 18:23 | 50.98868 | -0.53702 | 16882 ft | 402 kts | 45° |
| 2026-05-05 18:24 | 51.00822 | -0.50482 | 16938 ft | 402 kts | 45° |
| 2026-05-05 18:24 | 51.02762 | -0.47274 | 16937 ft | 402 kts | 45° |
| 2026-05-05 18:24 | 51.04696 | -0.44070 | 16939 ft | 402 kts | 46° |
| 2026-05-05 18:24 | 51.06642 | -0.40841 | 16937 ft | 402 kts | 46° |
| 2026-05-05 18:25 | 51.08612 | -0.37568 | 16944 ft | 401 kts | 46° |
| 2026-05-05 18:25 | 51.09932 | -0.35369 | 16944 ft | 401 kts | 46° |
| 2026-05-05 18:25 | 51.12485 | -0.31115 | 16943 ft | 401 kts | 46° |
| 2026-05-05 18:25 | 51.14422 | -0.27883 | 16944 ft | 402 kts | 46° |
| 2026-05-05 18:26 | 51.16244 | -0.24484 | 16941 ft | 402 kts | 52° |
| 2026-05-05 18:26 | 51.17805 | -0.20782 | 16943 ft | 403 kts | 59° |
| 2026-05-05 18:26 | 51.19099 | -0.16799 | 16946 ft | 403 kts | 64° |
| 2026-05-05 18:26 | 51.20252 | -0.12703 | 16967 ft | 406 kts | 65° |
| 2026-05-05 18:27 | 51.21187 | -0.08444 | 17330 ft | 414 kts | 79° |
| 2026-05-05 18:27 | 51.21254 | -0.03796 | 18141 ft | 413 kts | 92° |
| 2026-05-05 18:27 | 51.21041 | 0.00813 | 18786 ft | 415 kts | 94° |
| 2026-05-05 18:27 | 51.20811 | 0.05377 | 19245 ft | 420 kts | 93° |
| 2026-05-05 18:28 | 51.20409 | 0.14762 | 20263 ft | 427 kts | 92° |
| 2026-05-05 18:28 | 51.20230 | 0.19586 | 20953 ft | 430 kts | 92° |
| 2026-05-05 18:28 | 51.20065 | 0.24291 | 21487 ft | 433 kts | 92° |
| 2026-05-05 18:29 | 51.19900 | 0.29115 | 22012 ft | 436 kts | 92° |
| 2026-05-05 18:29 | 51.19734 | 0.33988 | 22507 ft | 440 kts | 92° |
| 2026-05-05 18:29 | 51.19568 | 0.38879 | 23013 ft | 443 kts | 92° |
| 2026-05-05 18:29 | 51.19399 | 0.43808 | 23505 ft | 446 kts | 92° |
| 2026-05-05 18:30 | 51.19228 | 0.48784 | 23949 ft | 449 kts | 92° |
| 2026-05-05 18:30 | 51.19055 | 0.53779 | 24361 ft | 452 kts | 93° |
| 2026-05-05 18:30 | 51.18879 | 0.58822 | 24763 ft | 455 kts | 93° |
| 2026-05-05 18:30 | 51.18700 | 0.63891 | 25154 ft | 458 kts | 94° |
| 2026-05-05 18:31 | 51.18519 | 0.68914 | 25533 ft | 460 kts | 94° |
| 2026-05-05 18:31 | 51.18332 | 0.74026 | 25916 ft | 463 kts | 94° |
| 2026-05-05 18:31 | 51.18142 | 0.79173 | 26299 ft | 465 kts | 94° |
| 2026-05-05 18:31 | 51.17948 | 0.84335 | 26610 ft | 468 kts | 95° |
| 2026-05-05 18:32 | 51.17750 | 0.89527 | 27005 ft | 470 kts | 95° |
| 2026-05-05 18:32 | 51.17549 | 0.94748 | 27404 ft | 472 kts | 95° |
| 2026-05-05 18:32 | 51.17345 | 1.00005 | 27808 ft | 474 kts | 95° |
| 2026-05-05 18:32 | 51.17138 | 1.05255 | 28312 ft | 473 kts | 95° |
| 2026-05-05 18:33 | 51.16931 | 1.10485 | 28942 ft | 470 kts | 95° |
| 2026-05-05 18:33 | 51.16723 | 1.15684 | 29573 ft | 467 kts | 95° |